Terminal Aerodrome Forecast
Issued by NWS

Home | Current Version | Previous Version | Graphics & Text | Print | Product List | Glossary On
Versions: 1 2 3 4 5 6 7 8 9 10 11 12 13 14 15 16 17 18 19 20 21 22 23
000
FTUS41 KCLE 210500
TAFFDY
TAF
KFDY 210537Z 2106/2206 21005KT P6SM SCT040 BKN100
     FM210700 VRB03KT 6SM BR VCSH BKN040 OVC100
      TEMPO 2109/2112 3SM -TSRA BR BKN025CB OVC080
     FM211300 23006KT P6SM SCT040 BKN120
     FM220400 23005KT 5SM BR VCTS BKN035CB OVC080=

USA.gov is the U.S. government's official web portal to all federal, state and local government web resources and services.